sensor_id;sensor_type;location;lat;lon;timestamp;temperature;humidity
55036;DHT22;40936;53.008;6.556;2023-04-15T00:01:26;6.50;99.90
55036;DHT22;40936;53.008;6.556;2023-04-15T00:03:53;6.50;99.90
55036;DHT22;40936;53.008;6.556;2023-04-15T00:06:22;6.50;99.90
55036;DHT22;40936;53.008;6.556;2023-04-15T00:11:20;6.40;99.90
55036;DHT22;40936;53.008;6.556;2023-04-15T00:13:45;6.70;99.90
55036;DHT22;40936;53.008;6.556;2023-04-15T00:16:11;6.60;99.90
55036;DHT22;40936;53.008;6.556;2023-04-15T00:18:37;6.30;99.90
55036;DHT22;40936;53.008;6.556;2023-04-15T00:21:04;6.30;99.90
55036;DHT22;40936;53.008;6.556;2023-04-15T00:23:29;6.30;99.90
55036;DHT22;40936;53.008;6.556;2023-04-15T00:25:56;8.00;99.90
55036;DHT22;40936;53.008;6.556;2023-04-15T00:28:21;6.10;99.90
55036;DHT22;40936;53.008;6.556;2023-04-15T00:30:47;9.10;99.90
55036;DHT22;40936;53.008;6.556;2023-04-15T00:33:13;6.30;1.00
55036;DHT22;40936;53.008;6.556;2023-04-15T00:35:39;6.20;1.00
55036;DHT22;40936;53.008;6.556;2023-04-15T00:38:13;6.20;1.00
55036;DHT22;40936;53.008;6.556;2023-04-15T00:40:39;6.20;1.00
55036;DHT22;40936;53.008;6.556;2023-04-15T00:43:05;6.20;1.00
55036;DHT22;40936;53.008;6.556;2023-04-15T00:45:31;6.20;1.00
55036;DHT22;40936;53.008;6.556;2023-04-15T00:47:58;6.20;1.00
55036;DHT22;40936;53.008;6.556;2023-04-15T00:52:50;6.20;1.00
55036;DHT22;40936;53.008;6.556;2023-04-15T00:55:16;6.70;1.00
55036;DHT22;40936;53.008;6.556;2023-04-15T00:57:42;6.20;1.00
55036;DHT22;40936;53.008;6.556;2023-04-15T01:00:09;6.00;1.00
55036;DHT22;40936;53.008;6.556;2023-04-15T01:02:36;6.00;1.00
55036;DHT22;40936;53.008;6.556;2023-04-15T01:05:02;6.10;1.00
55036;DHT22;40936;53.008;6.556;2023-04-15T01:07:29;4.80;1.00
55036;DHT22;40936;53.008;6.556;2023-04-15T01:09:55;6.40;1.00
55036;DHT22;40936;53.008;6.556;2023-04-15T01:12:21;6.00;1.00
55036;DHT22;40936;53.008;6.556;2023-04-15T01:14:49;7.90;1.00
55036;DHT22;40936;53.008;6.556;2023-04-15T01:17:16;5.90;1.00
55036;DHT22;40936;53.008;6.556;2023-04-15T01:19:42;5.90;1.00
55036;DHT22;40936;53.008;6.556;2023-04-15T01:22:08;5.90;1.00
55036;DHT22;40936;53.008;6.556;2023-04-15T01:24:35;5.80;1.00
55036;DHT22;40936;53.008;6.556;2023-04-15T01:27:01;5.80;1.00
55036;DHT22;40936;53.008;6.556;2023-04-15T01:29:28;7.50;1.00
55036;DHT22;40936;53.008;6.556;2023-04-15T01:31:54;5.90;1.00
55036;DHT22;40936;53.008;6.556;2023-04-15T01:34:21;6.80;1.00
55036;DHT22;40936;53.008;6.556;2023-04-15T01:39:14;5.80;1.00
55036;DHT22;40936;53.008;6.556;2023-04-15T01:44:07;6.30;1.00
55036;DHT22;40936;53.008;6.556;2023-04-15T01:48:59;5.60;1.00
55036;DHT22;40936;53.008;6.556;2023-04-15T01:51:25;5.50;1.00
55036;DHT22;40936;53.008;6.556;2023-04-15T01:53:52;5.70;1.00
55036;DHT22;40936;53.008;6.556;2023-04-15T01:56:17;6.80;1.00
55036;DHT22;40936;53.008;6.556;2023-04-15T01:58:43;5.50;19.50
55036;DHT22;40936;53.008;6.556;2023-04-15T02:01:09;6.20;9.50
55036;DHT22;40936;53.008;6.556;2023-04-15T02:03:36;5.50;1.00
55036;DHT22;40936;53.008;6.556;2023-04-15T02:06:02;5.30;22.20
55036;DHT22;40936;53.008;6.556;2023-04-15T02:08:29;5.40;5.50
55036;DHT22;40936;53.008;6.556;2023-04-15T02:10:55;7.10;25.80
55036;DHT22;40936;53.008;6.556;2023-04-15T02:13:20;6.50;41.10
55036;DHT22;40936;53.008;6.556;2023-04-15T02:15:47;6.80;47.60
55036;DHT22;40936;53.008;6.556;2023-04-15T02:18:14;6.20;70.30
55036;DHT22;40936;53.008;6.556;2023-04-15T02:20:40;5.70;46.70
55036;DHT22;40936;53.008;6.556;2023-04-15T02:23:08;5.10;32.60
55036;DHT22;40936;53.008;6.556;2023-04-15T02:25:33;6.80;66.70
55036;DHT22;40936;53.008;6.556;2023-04-15T02:30:25;4.90;99.90
55036;DHT22;40936;53.008;6.556;2023-04-15T02:32:51;5.40;99.90
55036;DHT22;40936;53.008;6.556;2023-04-15T02:35:17;4.70;99.90
55036;DHT22;40936;53.008;6.556;2023-04-15T02:37:45;5.00;99.90
55036;DHT22;40936;53.008;6.556;2023-04-15T02:40:12;5.80;99.90
55036;DHT22;40936;53.008;6.556;2023-04-15T02:42:38;4.90;99.90
55036;DHT22;40936;53.008;6.556;2023-04-15T02:45:05;4.90;99.90
55036;DHT22;40936;53.008;6.556;2023-04-15T02:52:25;4.70;99.90
55036;DHT22;40936;53.008;6.556;2023-04-15T02:54:51;4.70;99.90
55036;DHT22;40936;53.008;6.556;2023-04-15T02:57:17;4.10;99.90
55036;DHT22;40936;53.008;6.556;2023-04-15T02:59:43;4.70;99.90
55036;DHT22;40936;53.008;6.556;2023-04-15T03:02:08;4.60;99.90
55036;DHT22;40936;53.008;6.556;2023-04-15T03:04:34;4.60;99.90
55036;DHT22;40936;53.008;6.556;2023-04-15T03:07:01;4.50;99.90
55036;DHT22;40936;53.008;6.556;2023-04-15T03:09:26;4.30;99.90
55036;DHT22;40936;53.008;6.556;2023-04-15T03:11:52;6.00;99.90
55036;DHT22;40936;53.008;6.556;2023-04-15T03:14:19;4.40;99.90
55036;DHT22;40936;53.008;6.556;2023-04-15T03:16:45;4.40;99.90
55036;DHT22;40936;53.008;6.556;2023-04-15T03:19:10;4.30;99.90
55036;DHT22;40936;53.008;6.556;2023-04-15T03:21:36;4.60;99.90
55036;DHT22;40936;53.008;6.556;2023-04-15T03:24:02;6.80;99.90
55036;DHT22;40936;53.008;6.556;2023-04-15T03:36:13;4.20;99.90
55036;DHT22;40936;53.008;6.556;2023-04-15T03:38:39;5.40;99.90
55036;DHT22;40936;53.008;6.556;2023-04-15T03:41:05;5.70;99.90
55036;DHT22;40936;53.008;6.556;2023-04-15T03:43:30;4.30;99.90
55036;DHT22;40936;53.008;6.556;2023-04-15T03:45:56;4.20;99.90
55036;DHT22;40936;53.008;6.556;2023-04-15T03:48:22;4.10;99.90
55036;DHT22;40936;53.008;6.556;2023-04-15T03:50:48;6.90;99.90
55036;DHT22;40936;53.008;6.556;2023-04-15T03:53:14;4.20;99.90
55036;DHT22;40936;53.008;6.556;2023-04-15T03:55:40;5.90;99.90
55036;DHT22;40936;53.008;6.556;2023-04-15T03:58:06;5.20;1.00
55036;DHT22;40936;53.008;6.556;2023-04-15T04:02:58;4.20;1.00
55036;DHT22;40936;53.008;6.556;2023-04-15T04:05:23;5.40;99.90
55036;DHT22;40936;53.008;6.556;2023-04-15T04:07:49;4.20;99.90
55036;DHT22;40936;53.008;6.556;2023-04-15T04:10:15;5.20;1.00
55036;DHT22;40936;53.008;6.556;2023-04-15T04:12:40;5.60;1.00
55036;DHT22;40936;53.008;6.556;2023-04-15T04:15:07;6.70;99.90
55036;DHT22;40936;53.008;6.556;2023-04-15T04:17:33;3.90;99.90
55036;DHT22;40936;53.008;6.556;2023-04-15T04:19:58;4.00;99.90
55036;DHT22;40936;53.008;6.556;2023-04-15T04:22:24;3.50;99.90
55036;DHT22;40936;53.008;6.556;2023-04-15T04:27:16;3.80;99.90
55036;DHT22;40936;53.008;6.556;2023-04-15T04:29:42;4.10;99.90
55036;DHT22;40936;53.008;6.556;2023-04-15T04:32:07;3.80;99.90
55036;DHT22;40936;53.008;6.556;2023-04-15T04:34:33;3.40;99.90
55036;DHT22;40936;53.008;6.556;2023-04-15T04:36:59;6.10;99.90
55036;DHT22;40936;53.008;6.556;2023-04-15T04:39:25;3.80;99.90
55036;DHT22;40936;53.008;6.556;2023-04-15T04:41:50;3.70;99.90
55036;DHT22;40936;53.008;6.556;2023-04-15T04:44:19;5.00;99.90
55036;DHT22;40936;53.008;6.556;2023-04-15T04:46:45;3.80;99.90
55036;DHT22;40936;53.008;6.556;2023-04-15T04:49:10;6.00;99.90
55036;DHT22;40936;53.008;6.556;2023-04-15T04:51:36;3.00;99.90
55036;DHT22;40936;53.008;6.556;2023-04-15T04:54:03;3.20;99.90
55036;DHT22;40936;53.008;6.556;2023-04-15T04:56:28;2.60;99.90
55036;DHT22;40936;53.008;6.556;2023-04-15T04:58:54;3.40;99.90
55036;DHT22;40936;53.008;6.556;2023-04-15T05:01:20;6.20;99.90
55036;DHT22;40936;53.008;6.556;2023-04-15T05:08:38;3.60;99.90
55036;DHT22;40936;53.008;6.556;2023-04-15T05:11:05;5.70;99.90
55036;DHT22;40936;53.008;6.556;2023-04-15T05:13:32;2.80;99.90
55036;DHT22;40936;53.008;6.556;2023-04-15T05:15:58;3.60;99.90
55036;DHT22;40936;53.008;6.556;2023-04-15T05:18:24;5.50;99.90
55036;DHT22;40936;53.008;6.556;2023-04-15T05:20:49;4.20;99.90
55036;DHT22;40936;53.008;6.556;2023-04-15T05:23:15;4.20;99.90
55036;DHT22;40936;53.008;6.556;2023-04-15T05:25:42;3.70;99.90
55036;DHT22;40936;53.008;6.556;2023-04-15T05:28:07;3.70;99.90
55036;DHT22;40936;53.008;6.556;2023-04-15T05:30:33;2.60;99.90
55036;DHT22;40936;53.008;6.556;2023-04-15T05:32:59;5.90;99.90
55036;DHT22;40936;53.008;6.556;2023-04-15T05:37:51;4.00;99.90
55036;DHT22;40936;53.008;6.556;2023-04-15T05:40:17;5.30;99.90
55036;DHT22;40936;53.008;6.556;2023-04-15T05:42:43;4.30;99.90
55036;DHT22;40936;53.008;6.556;2023-04-15T05:45:09;4.50;99.90
55036;DHT22;40936;53.008;6.556;2023-04-15T05:52:29;4.40;99.90
55036;DHT22;40936;53.008;6.556;2023-04-15T05:54:58;4.60;99.90
55036;DHT22;40936;53.008;6.556;2023-04-15T05:57:27;7.90;99.90
55036;DHT22;40936;53.008;6.556;2023-04-15T05:59:53;4.90;99.90
55036;DHT22;40936;53.008;6.556;2023-04-15T06:02:20;6.70;99.90
55036;DHT22;40936;53.008;6.556;2023-04-15T06:04:46;3.70;99.90
55036;DHT22;40936;53.008;6.556;2023-04-15T06:09:41;5.10;99.90
55036;DHT22;40936;53.008;6.556;2023-04-15T06:12:07;5.20;99.90
55036;DHT22;40936;53.008;6.556;2023-04-15T06:14:39;5.30;99.90
55036;DHT22;40936;53.008;6.556;2023-04-15T06:17:06;5.50;99.90
55036;DHT22;40936;53.008;6.556;2023-04-15T06:19:32;5.80;99.90
55036;DHT22;40936;53.008;6.556;2023-04-15T06:21:59;7.50;99.90
55036;DHT22;40936;53.008;6.556;2023-04-15T06:24:25;6.10;99.90
55036;DHT22;40936;53.008;6.556;2023-04-15T06:26:52;6.60;99.90
55036;DHT22;40936;53.008;6.556;2023-04-15T06:29:18;6.30;99.90
55036;DHT22;40936;53.008;6.556;2023-04-15T06:31:46;6.70;99.90
55036;DHT22;40936;53.008;6.556;2023-04-15T06:34:12;6.80;99.90
55036;DHT22;40936;53.008;6.556;2023-04-15T06:36:39;8.60;93.60
55036;DHT22;40936;53.008;6.556;2023-04-15T06:41:32;7.30;13.90
55036;DHT22;40936;53.008;6.556;2023-04-15T06:44:00;7.50;37.70
55036;DHT22;40936;53.008;6.556;2023-04-15T06:46:29;7.60;74.70
55036;DHT22;40936;53.008;6.556;2023-04-15T06:49:11;7.70;1.00
55036;DHT22;40936;53.008;6.556;2023-04-15T06:54:11;8.00;1.00
55036;DHT22;40936;53.008;6.556;2023-04-15T06:56:37;7.90;1.00
55036;DHT22;40936;53.008;6.556;2023-04-15T06:59:03;8.10;1.00
55036;DHT22;40936;53.008;6.556;2023-04-15T07:01:28;8.10;1.00
55036;DHT22;40936;53.008;6.556;2023-04-15T07:03:54;8.20;1.00
55036;DHT22;40936;53.008;6.556;2023-04-15T07:08:52;8.80;1.00
55036;DHT22;40936;53.008;6.556;2023-04-15T07:11:20;8.50;1.00
55036;DHT22;40936;53.008;6.556;2023-04-15T07:13:47;8.40;1.00
55036;DHT22;40936;53.008;6.556;2023-04-15T07:16:13;9.20;1.00
55036;DHT22;40936;53.008;6.556;2023-04-15T07:18:38;9.00;1.00
55036;DHT22;40936;53.008;6.556;2023-04-15T07:21:04;9.20;1.00
55036;DHT22;40936;53.008;6.556;2023-04-15T07:23:30;9.20;1.00
55036;DHT22;40936;53.008;6.556;2023-04-15T07:25:56;8.80;1.00
55036;DHT22;40936;53.008;6.556;2023-04-15T07:28:22;10.40;1.00
55036;DHT22;40936;53.008;6.556;2023-04-15T07:30:48;9.00;1.00
55036;DHT22;40936;53.008;6.556;2023-04-15T07:33:13;9.80;1.00
55036;DHT22;40936;53.008;6.556;2023-04-15T07:35:39;10.00;1.00
55036;DHT22;40936;53.008;6.556;2023-04-15T07:38:10;10.10;1.00
55036;DHT22;40936;53.008;6.556;2023-04-15T07:40:42;10.30;99.90
55036;DHT22;40936;53.008;6.556;2023-04-15T07:43:08;10.20;99.90
55036;DHT22;40936;53.008;6.556;2023-04-15T07:45:34;10.50;99.90
55036;DHT22;40936;53.008;6.556;2023-04-15T07:48:01;10.60;99.90
55036;DHT22;40936;53.008;6.556;2023-04-15T07:50:33;10.70;99.90
55036;DHT22;40936;53.008;6.556;2023-04-15T07:53:02;10.70;99.90
55036;DHT22;40936;53.008;6.556;2023-04-15T07:55:28;10.80;99.90
55036;DHT22;40936;53.008;6.556;2023-04-15T07:57:55;10.90;99.90
55036;DHT22;40936;53.008;6.556;2023-04-15T08:00:21;11.00;99.90
55036;DHT22;40936;53.008;6.556;2023-04-15T08:02:48;11.00;99.90
55036;DHT22;40936;53.008;6.556;2023-04-15T08:05:14;11.10;99.90
55036;DHT22;40936;53.008;6.556;2023-04-15T08:07:40;11.20;99.90
55036;DHT22;40936;53.008;6.556;2023-04-15T08:10:07;11.20;99.90
55036;DHT22;40936;53.008;6.556;2023-04-15T08:12:32;11.30;99.90
55036;DHT22;40936;53.008;6.556;2023-04-15T08:14:58;11.50;99.90
55036;DHT22;40936;53.008;6.556;2023-04-15T08:17:27;11.70;99.90
55036;DHT22;40936;53.008;6.556;2023-04-15T08:19:54;12.00;99.90
55036;DHT22;40936;53.008;6.556;2023-04-15T08:22:20;12.10;99.90
55036;DHT22;40936;53.008;6.556;2023-04-15T08:24:46;12.10;99.90
55036;DHT22;40936;53.008;6.556;2023-04-15T08:27:12;13.30;99.90
55036;DHT22;40936;53.008;6.556;2023-04-15T08:29:38;11.80;99.90
55036;DHT22;40936;53.008;6.556;2023-04-15T08:32:05;11.70;99.90
55036;DHT22;40936;53.008;6.556;2023-04-15T08:34:32;11.50;99.90
55036;DHT22;40936;53.008;6.556;2023-04-15T08:37:01;11.30;99.90
55036;DHT22;40936;53.008;6.556;2023-04-15T08:39:27;11.20;99.90
55036;DHT22;40936;53.008;6.556;2023-04-15T08:42:00;11.10;99.90
55036;DHT22;40936;53.008;6.556;2023-04-15T08:44:34;11.00;99.90
55036;DHT22;40936;53.008;6.556;2023-04-15T08:47:25;11.00;99.90
55036;DHT22;40936;53.008;6.556;2023-04-15T08:49:54;11.00;99.90
55036;DHT22;40936;53.008;6.556;2023-04-15T08:52:26;11.00;99.90
55036;DHT22;40936;53.008;6.556;2023-04-15T08:54:56;10.90;99.90
55036;DHT22;40936;53.008;6.556;2023-04-15T08:57:29;10.90;99.90
55036;DHT22;40936;53.008;6.556;2023-04-15T09:00:02;10.90;99.90
55036;DHT22;40936;53.008;6.556;2023-04-15T09:02:28;10.80;99.90
55036;DHT22;40936;53.008;6.556;2023-04-15T09:04:54;10.80;99.90
55036;DHT22;40936;53.008;6.556;2023-04-15T09:07:21;10.80;99.90
55036;DHT22;40936;53.008;6.556;2023-04-15T09:09:47;10.60;99.90
55036;DHT22;40936;53.008;6.556;2023-04-15T09:12:14;10.70;99.90
55036;DHT22;40936;53.008;6.556;2023-04-15T09:14:45;10.70;99.90
55036;DHT22;40936;53.008;6.556;2023-04-15T09:17:11;10.70;99.90
55036;DHT22;40936;53.008;6.556;2023-04-15T09:22:05;10.60;99.90
55036;DHT22;40936;53.008;6.556;2023-04-15T09:24:38;10.70;99.90
55036;DHT22;40936;53.008;6.556;2023-04-15T09:27:08;10.80;99.90
55036;DHT22;40936;53.008;6.556;2023-04-15T09:29:34;10.90;99.90
55036;DHT22;40936;53.008;6.556;2023-04-15T09:32:13;11.00;99.90
55036;DHT22;40936;53.008;6.556;2023-04-15T09:34:39;11.20;99.90
55036;DHT22;40936;53.008;6.556;2023-04-15T09:37:05;11.20;99.90
55036;DHT22;40936;53.008;6.556;2023-04-15T09:39:48;11.30;99.90
55036;DHT22;40936;53.008;6.556;2023-04-15T09:42:15;11.20;99.90
55036;DHT22;40936;53.008;6.556;2023-04-15T09:44:42;11.20;99.90
55036;DHT22;40936;53.008;6.556;2023-04-15T09:47:08;11.30;99.90
55036;DHT22;40936;53.008;6.556;2023-04-15T09:49:34;11.40;99.90
55036;DHT22;40936;53.008;6.556;2023-04-15T09:52:01;11.40;99.90
55036;DHT22;40936;53.008;6.556;2023-04-15T09:54:35;11.50;99.90
55036;DHT22;40936;53.008;6.556;2023-04-15T09:57:05;11.60;99.90
55036;DHT22;40936;53.008;6.556;2023-04-15T09:59:31;11.70;99.90
55036;DHT22;40936;53.008;6.556;2023-04-15T10:01:57;12.00;99.90
55036;DHT22;40936;53.008;6.556;2023-04-15T10:04:24;11.80;99.90
55036;DHT22;40936;53.008;6.556;2023-04-15T10:06:52;11.80;99.90
55036;DHT22;40936;53.008;6.556;2023-04-15T10:09:18;11.50;99.90
55036;DHT22;40936;53.008;6.556;2023-04-15T10:11:45;11.70;99.90
55036;DHT22;40936;53.008;6.556;2023-04-15T10:14:13;11.80;99.90
55036;DHT22;40936;53.008;6.556;2023-04-15T10:16:40;11.80;99.90
55036;DHT22;40936;53.008;6.556;2023-04-15T10:19:09;11.80;99.90
55036;DHT22;40936;53.008;6.556;2023-04-15T10:21:36;11.80;99.90
55036;DHT22;40936;53.008;6.556;2023-04-15T10:24:02;11.70;99.90
55036;DHT22;40936;53.008;6.556;2023-04-15T10:26:29;11.70;99.90
55036;DHT22;40936;53.008;6.556;2023-04-15T10:28:55;11.80;99.90
55036;DHT22;40936;53.008;6.556;2023-04-15T10:31:22;11.80;99.90
55036;DHT22;40936;53.008;6.556;2023-04-15T10:33:48;11.80;99.90
55036;DHT22;40936;53.008;6.556;2023-04-15T10:36:15;11.70;99.90
55036;DHT22;40936;53.008;6.556;2023-04-15T10:38:44;11.70;99.90
55036;DHT22;40936;53.008;6.556;2023-04-15T10:41:26;13.30;99.90
55036;DHT22;40936;53.008;6.556;2023-04-15T10:43:59;11.80;99.90
55036;DHT22;40936;53.008;6.556;2023-04-15T10:51:51;11.70;99.90
55036;DHT22;40936;53.008;6.556;2023-04-15T10:59:58;11.60;99.90
55036;DHT22;40936;53.008;6.556;2023-04-15T11:03:33;11.60;99.90
55036;DHT22;40936;53.008;6.556;2023-04-15T11:08:11;11.60;99.90
55036;DHT22;40936;53.008;6.556;2023-04-15T11:13:05;11.60;99.90
55036;DHT22;40936;53.008;6.556;2023-04-15T11:15:43;11.60;99.90
55036;DHT22;40936;53.008;6.556;2023-04-15T11:18:52;11.60;99.90
55036;DHT22;40936;53.008;6.556;2023-04-15T11:21:07;11.60;99.90
55036;DHT22;40936;53.008;6.556;2023-04-15T11:23:41;11.50;99.90
55036;DHT22;40936;53.008;6.556;2023-04-15T11:26:12;11.50;99.90
55036;DHT22;40936;53.008;6.556;2023-04-15T11:28:42;11.40;99.90
55036;DHT22;40936;53.008;6.556;2023-04-15T11:31:12;11.40;99.90
55036;DHT22;40936;53.008;6.556;2023-04-15T11:34:05;9.80;99.90
55036;DHT22;40936;53.008;6.556;2023-04-15T11:36:30;11.40;99.90
55036;DHT22;40936;53.008;6.556;2023-04-15T11:38:59;11.40;99.90
55036;DHT22;40936;53.008;6.556;2023-04-15T11:41:24;11.40;99.90
55036;DHT22;40936;53.008;6.556;2023-04-15T11:43:51;11.50;99.90
55036;DHT22;40936;53.008;6.556;2023-04-15T11:46:17;11.20;99.90
55036;DHT22;40936;53.008;6.556;2023-04-15T11:48:44;11.40;99.90
55036;DHT22;40936;53.008;6.556;2023-04-15T11:51:11;11.40;99.90
55036;DHT22;40936;53.008;6.556;2023-04-15T11:56:09;11.50;99.90
55036;DHT22;40936;53.008;6.556;2023-04-15T11:58:36;11.60;99.90
55036;DHT22;40936;53.008;6.556;2023-04-15T12:01:03;11.60;99.90
55036;DHT22;40936;53.008;6.556;2023-04-15T12:06:12;11.60;99.90
55036;DHT22;40936;53.008;6.556;2023-04-15T12:11:16;11.60;99.90
55036;DHT22;40936;53.008;6.556;2023-04-15T12:16:22;11.50;99.90
55036;DHT22;40936;53.008;6.556;2023-04-15T12:18:53;11.60;99.90
55036;DHT22;40936;53.008;6.556;2023-04-15T12:21:24;11.60;99.90
55036;DHT22;40936;53.008;6.556;2023-04-15T12:23:55;11.60;99.90
55036;DHT22;40936;53.008;6.556;2023-04-15T12:29:06;11.60;99.90
55036;DHT22;40936;53.008;6.556;2023-04-15T12:31:34;11.60;99.90
55036;DHT22;40936;53.008;6.556;2023-04-15T12:34:00;11.50;99.90
55036;DHT22;40936;53.008;6.556;2023-04-15T12:36:27;11.50;99.90
55036;DHT22;40936;53.008;6.556;2023-04-15T12:38:53;11.60;99.90
55036;DHT22;40936;53.008;6.556;2023-04-15T12:41:19;11.50;99.90
55036;DHT22;40936;53.008;6.556;2023-04-15T12:43:46;11.40;99.90
55036;DHT22;40936;53.008;6.556;2023-04-15T12:46:15;9.70;99.90
55036;DHT22;40936;53.008;6.556;2023-04-15T12:48:42;11.30;99.90
55036;DHT22;40936;53.008;6.556;2023-04-15T12:51:08;11.30;99.90
55036;DHT22;40936;53.008;6.556;2023-04-15T12:53:34;11.30;99.90
55036;DHT22;40936;53.008;6.556;2023-04-15T12:55:59;11.30;99.90
55036;DHT22;40936;53.008;6.556;2023-04-15T12:58:25;11.20;99.90
55036;DHT22;40936;53.008;6.556;2023-04-15T13:00:51;11.20;99.90
55036;DHT22;40936;53.008;6.556;2023-04-15T13:03:17;11.10;99.90
55036;DHT22;40936;53.008;6.556;2023-04-15T13:08:09;11.00;99.90
55036;DHT22;40936;53.008;6.556;2023-04-15T13:10:35;10.90;99.90
55036;DHT22;40936;53.008;6.556;2023-04-15T13:13:01;10.80;99.90
55036;DHT22;40936;53.008;6.556;2023-04-15T13:15:28;10.80;99.90
55036;DHT22;40936;53.008;6.556;2023-04-15T13:17:53;10.90;99.90
55036;DHT22;40936;53.008;6.556;2023-04-15T13:20:19;10.80;99.90
55036;DHT22;40936;53.008;6.556;2023-04-15T13:22:45;10.80;99.90
55036;DHT22;40936;53.008;6.556;2023-04-15T13:25:11;10.80;99.90
55036;DHT22;40936;53.008;6.556;2023-04-15T13:27:37;10.80;99.90
55036;DHT22;40936;53.008;6.556;2023-04-15T13:30:03;10.80;99.90
55036;DHT22;40936;53.008;6.556;2023-04-15T13:32:29;10.70;99.90
55036;DHT22;40936;53.008;6.556;2023-04-15T13:34:55;10.70;99.90
55036;DHT22;40936;53.008;6.556;2023-04-15T13:37:26;11.90;99.90
55036;DHT22;40936;53.008;6.556;2023-04-15T13:39:52;10.50;99.90
55036;DHT22;40936;53.008;6.556;2023-04-15T13:42:18;10.40;99.90
55036;DHT22;40936;53.008;6.556;2023-04-15T13:44:44;10.40;99.90
55036;DHT22;40936;53.008;6.556;2023-04-15T13:47:10;10.30;99.90
55036;DHT22;40936;53.008;6.556;2023-04-15T13:49:36;10.30;99.90
55036;DHT22;40936;53.008;6.556;2023-04-15T13:52:01;10.30;99.90
55036;DHT22;40936;53.008;6.556;2023-04-15T13:54:27;10.20;99.90
55036;DHT22;40936;53.008;6.556;2023-04-15T13:56:54;10.20;99.90
55036;DHT22;40936;53.008;6.556;2023-04-15T13:59:21;10.10;1.00
55036;DHT22;40936;53.008;6.556;2023-04-15T14:01:47;10.10;1.00
55036;DHT22;40936;53.008;6.556;2023-04-15T14:04:13;10.20;1.00
55036;DHT22;40936;53.008;6.556;2023-04-15T14:06:41;10.10;1.00
55036;DHT22;40936;53.008;6.556;2023-04-15T14:09:07;10.10;24.90
55036;DHT22;40936;53.008;6.556;2023-04-15T14:11:33;9.90;1.00
55036;DHT22;40936;53.008;6.556;2023-04-15T14:14:01;10.00;1.00
55036;DHT22;40936;53.008;6.556;2023-04-15T14:16:26;10.00;46.60
55036;DHT22;40936;53.008;6.556;2023-04-15T14:18:52;10.00;27.60
55036;DHT22;40936;53.008;6.556;2023-04-15T14:21:18;10.00;27.10
55036;DHT22;40936;53.008;6.556;2023-04-15T14:23:44;10.00;1.90
55036;DHT22;40936;53.008;6.556;2023-04-15T14:26:09;9.00;15.30
55036;DHT22;40936;53.008;6.556;2023-04-15T14:28:35;10.00;31.80
55036;DHT22;40936;53.008;6.556;2023-04-15T14:31:03;10.00;55.60
55036;DHT22;40936;53.008;6.556;2023-04-15T14:33:30;9.90;85.50
55036;DHT22;40936;53.008;6.556;2023-04-15T14:35:56;9.90;68.30
55036;DHT22;40936;53.008;6.556;2023-04-15T14:38:22;9.90;90.70
55036;DHT22;40936;53.008;6.556;2023-04-15T14:40:48;10.00;96.30
55036;DHT22;40936;53.008;6.556;2023-04-15T14:43:13;9.80;99.90
55036;DHT22;40936;53.008;6.556;2023-04-15T14:45:39;9.80;99.90
55036;DHT22;40936;53.008;6.556;2023-04-15T14:48:05;9.80;99.90
55036;DHT22;40936;53.008;6.556;2023-04-15T14:50:34;9.80;99.90
55036;DHT22;40936;53.008;6.556;2023-04-15T14:53:00;9.70;99.90
55036;DHT22;40936;53.008;6.556;2023-04-15T14:55:26;9.70;99.90
55036;DHT22;40936;53.008;6.556;2023-04-15T14:57:52;9.70;99.90
55036;DHT22;40936;53.008;6.556;2023-04-15T15:00:17;9.60;99.90
55036;DHT22;40936;53.008;6.556;2023-04-15T15:02:43;9.60;99.90
55036;DHT22;40936;53.008;6.556;2023-04-15T15:05:09;9.50;99.90
55036;DHT22;40936;53.008;6.556;2023-04-15T15:07:36;9.50;99.90
55036;DHT22;40936;53.008;6.556;2023-04-15T15:10:03;10.80;99.90
55036;DHT22;40936;53.008;6.556;2023-04-15T15:12:31;9.50;99.90
55036;DHT22;40936;53.008;6.556;2023-04-15T15:14:57;9.60;99.90
55036;DHT22;40936;53.008;6.556;2023-04-15T15:17:23;9.50;99.90
55036;DHT22;40936;53.008;6.556;2023-04-15T15:19:48;9.50;99.90
55036;DHT22;40936;53.008;6.556;2023-04-15T15:22:14;9.50;99.90
55036;DHT22;40936;53.008;6.556;2023-04-15T15:24:42;9.50;99.90
55036;DHT22;40936;53.008;6.556;2023-04-15T15:27:08;9.50;99.90
55036;DHT22;40936;53.008;6.556;2023-04-15T15:29:35;9.40;99.90
55036;DHT22;40936;53.008;6.556;2023-04-15T15:32:00;9.40;99.90
55036;DHT22;40936;53.008;6.556;2023-04-15T15:34:26;9.40;99.90
55036;DHT22;40936;53.008;6.556;2023-04-15T15:36:52;9.30;99.90
55036;DHT22;40936;53.008;6.556;2023-04-15T15:39:19;9.20;99.90
55036;DHT22;40936;53.008;6.556;2023-04-15T15:41:45;9.30;99.90
55036;DHT22;40936;53.008;6.556;2023-04-15T15:44:11;9.30;99.90
55036;DHT22;40936;53.008;6.556;2023-04-15T15:46:37;9.30;99.90
55036;DHT22;40936;53.008;6.556;2023-04-15T15:51:29;9.30;99.90
55036;DHT22;40936;53.008;6.556;2023-04-15T15:53:55;9.20;99.90
55036;DHT22;40936;53.008;6.556;2023-04-15T15:56:21;8.70;99.90
55036;DHT22;40936;53.008;6.556;2023-04-15T15:58:46;9.10;99.90
55036;DHT22;40936;53.008;6.556;2023-04-15T16:01:12;9.20;99.90
55036;DHT22;40936;53.008;6.556;2023-04-15T16:03:38;9.20;1.00
55036;DHT22;40936;53.008;6.556;2023-04-15T16:06:04;8.80;1.00
55036;DHT22;40936;53.008;6.556;2023-04-15T16:10:56;9.10;1.00
55036;DHT22;40936;53.008;6.556;2023-04-15T16:13:21;9.10;1.00
55036;DHT22;40936;53.008;6.556;2023-04-15T16:15:48;9.40;1.00
55036;DHT22;40936;53.008;6.556;2023-04-15T16:18:16;9.10;1.00
55036;DHT22;40936;53.008;6.556;2023-04-15T16:20:42;9.10;1.00
55036;DHT22;40936;53.008;6.556;2023-04-15T16:23:15;9.30;1.00
55036;DHT22;40936;53.008;6.556;2023-04-15T16:25:42;10.50;9.90
55036;DHT22;40936;53.008;6.556;2023-04-15T16:28:09;9.00;32.20
55036;DHT22;40936;53.008;6.556;2023-04-15T16:30:39;9.10;44.80
55036;DHT22;40936;53.008;6.556;2023-04-15T16:33:06;9.00;47.30
55036;DHT22;40936;53.008;6.556;2023-04-15T16:35:32;9.00;9.50
55036;DHT22;40936;53.008;6.556;2023-04-15T16:37:58;9.10;40.80
55036;DHT22;40936;53.008;6.556;2023-04-15T16:40:24;9.00;28.30
55036;DHT22;40936;53.008;6.556;2023-04-15T16:42:50;9.00;39.70
55036;DHT22;40936;53.008;6.556;2023-04-15T16:45:17;9.10;38.80
55036;DHT22;40936;53.008;6.556;2023-04-15T16:47:43;9.10;6.50
55036;DHT22;40936;53.008;6.556;2023-04-15T16:50:09;9.10;1.00
55036;DHT22;40936;53.008;6.556;2023-04-15T16:52:35;9.00;1.00
55036;DHT22;40936;53.008;6.556;2023-04-15T16:55:01;9.00;48.70
55036;DHT22;40936;53.008;6.556;2023-04-15T16:57:26;9.00;99.90
55036;DHT22;40936;53.008;6.556;2023-04-15T16:59:52;8.50;97.90
55036;DHT22;40936;53.008;6.556;2023-04-15T17:02:18;9.30;98.20
55036;DHT22;40936;53.008;6.556;2023-04-15T17:04:44;9.00;99.90
55036;DHT22;40936;53.008;6.556;2023-04-15T17:07:09;9.00;92.10
55036;DHT22;40936;53.008;6.556;2023-04-15T17:09:39;9.00;99.90
55036;DHT22;40936;53.008;6.556;2023-04-15T17:12:05;9.00;99.90
55036;DHT22;40936;53.008;6.556;2023-04-15T17:14:32;9.00;99.90
55036;DHT22;40936;53.008;6.556;2023-04-15T17:16:58;9.00;99.90